Terminal Aerodrome Forecast
Issued by NWS

Current Version | Previous Version | Graphics & Text | Print | Product List | Glossary On
Versions: 1 2 3 4 5 6 7 8 9 10 11 12 13 14 15 16
674
FTUS41 KPBZ 182320
TAFMGW
TAF
KMGW 182320Z 1900/1924 VRB05KT P6SM OVC050
     FM190400 02007KT 6SM -RA OVC015
     FM191100 22012G25KT 6SM -RASN OVC010
     FM191600 31015G25KT 6SM -RASN OVC008=

USA.gov is the U.S. government's official web portal to all federal, state and local government web resources and services.